sensor_id;sensor_type;location;lat;lon;timestamp;P1;durP1;ratioP1;P2;durP2;ratioP2
22922;SDS011;11627;51.322;22.816;2023-04-30T00:01:43;26.63;;;11.02;;
22922;SDS011;11627;51.322;22.816;2023-04-30T00:04:08;27.17;;;11.15;;
22922;SDS011;11627;51.322;22.816;2023-04-30T00:06:34;24.88;;;11.23;;
22922;SDS011;11627;51.322;22.816;2023-04-30T00:09:00;27.17;;;11.30;;
22922;SDS011;11627;51.322;22.816;2023-04-30T00:11:25;24.15;;;10.70;;
22922;SDS011;11627;51.322;22.816;2023-04-30T00:13:52;24.77;;;10.63;;
22922;SDS011;11627;51.322;22.816;2023-04-30T00:16:17;22.85;;;10.80;;
22922;SDS011;11627;51.322;22.816;2023-04-30T00:18:43;22.88;;;11.40;;
22922;SDS011;11627;51.322;22.816;2023-04-30T00:21:09;28.63;;;11.95;;
22922;SDS011;11627;51.322;22.816;2023-04-30T00:23:35;24.58;;;11.20;;
22922;SDS011;11627;51.322;22.816;2023-04-30T00:26:01;29.50;;;11.38;;
22922;SDS011;11627;51.322;22.816;2023-04-30T00:28:27;23.88;;;11.35;;
22922;SDS011;11627;51.322;22.816;2023-04-30T00:30:53;25.27;;;12.13;;
22922;SDS011;11627;51.322;22.816;2023-04-30T00:33:18;26.02;;;11.07;;
22922;SDS011;11627;51.322;22.816;2023-04-30T00:35:45;31.58;;;11.65;;
22922;SDS011;11627;51.322;22.816;2023-04-30T00:38:11;34.20;;;12.48;;
22922;SDS011;11627;51.322;22.816;2023-04-30T00:40:37;33.35;;;12.75;;
22922;SDS011;11627;51.322;22.816;2023-04-30T00:43:04;28.70;;;12.30;;
22922;SDS011;11627;51.322;22.816;2023-04-30T00:45:30;26.33;;;11.43;;
22922;SDS011;11627;51.322;22.816;2023-04-30T00:47:55;28.20;;;12.10;;
22922;SDS011;11627;51.322;22.816;2023-04-30T00:50:21;75.18;;;21.92;;
22922;SDS011;11627;51.322;22.816;2023-04-30T00:52:48;77.70;;;23.85;;
22922;SDS011;11627;51.322;22.816;2023-04-30T00:55:15;62.85;;;19.52;;
22922;SDS011;11627;51.322;22.816;2023-04-30T00:57:41;36.35;;;13.20;;
22922;SDS011;11627;51.322;22.816;2023-04-30T01:00:07;21.13;;;10.38;;
22922;SDS011;11627;51.322;22.816;2023-04-30T01:02:35;20.88;;;9.73;;
22922;SDS011;11627;51.322;22.816;2023-04-30T01:05:02;19.55;;;9.18;;
22922;SDS011;11627;51.322;22.816;2023-04-30T01:07:29;18.67;;;9.45;;
22922;SDS011;11627;51.322;22.816;2023-04-30T01:09:56;21.23;;;9.55;;
22922;SDS011;11627;51.322;22.816;2023-04-30T01:15:22;22.55;;;9.50;;
22922;SDS011;11627;51.322;22.816;2023-04-30T01:17:58;19.55;;;9.45;;
22922;SDS011;11627;51.322;22.816;2023-04-30T01:20:30;21.67;;;10.07;;
22922;SDS011;11627;51.322;22.816;2023-04-30T01:23:10;21.88;;;9.27;;
22922;SDS011;11627;51.322;22.816;2023-04-30T01:26:14;19.42;;;9.00;;
22922;SDS011;11627;51.322;22.816;2023-04-30T01:29:01;16.77;;;8.52;;
22922;SDS011;11627;51.322;22.816;2023-04-30T01:31:28;16.92;;;9.40;;
22922;SDS011;11627;51.322;22.816;2023-04-30T01:33:54;18.48;;;8.95;;
22922;SDS011;11627;51.322;22.816;2023-04-30T01:47:22;21.17;;;9.50;;
22922;SDS011;11627;51.322;22.816;2023-04-30T01:50:07;18.33;;;8.65;;
22922;SDS011;11627;51.322;22.816;2023-04-30T01:53:15;20.65;;;9.63;;
22922;SDS011;11627;51.322;22.816;2023-04-30T01:58:23;21.60;;;9.55;;
22922;SDS011;11627;51.322;22.816;2023-04-30T02:00:50;18.88;;;9.63;;
22922;SDS011;11627;51.322;22.816;2023-04-30T02:03:16;19.88;;;9.43;;
22922;SDS011;11627;51.322;22.816;2023-04-30T02:05:43;20.10;;;10.07;;
22922;SDS011;11627;51.322;22.816;2023-04-30T02:08:09;18.65;;;9.38;;
22922;SDS011;11627;51.322;22.816;2023-04-30T02:10:34;19.50;;;10.35;;
22922;SDS011;11627;51.322;22.816;2023-04-30T02:13:00;21.77;;;9.50;;
22922;SDS011;11627;51.322;22.816;2023-04-30T02:15:26;17.88;;;9.77;;
22922;SDS011;11627;51.322;22.816;2023-04-30T02:17:52;19.83;;;9.63;;
22922;SDS011;11627;51.322;22.816;2023-04-30T02:20:17;20.40;;;10.10;;
22922;SDS011;11627;51.322;22.816;2023-04-30T02:22:43;22.65;;;9.57;;
22922;SDS011;11627;51.322;22.816;2023-04-30T02:25:09;27.17;;;10.73;;
22922;SDS011;11627;51.322;22.816;2023-04-30T02:27:36;28.98;;;13.25;;
22922;SDS011;11627;51.322;22.816;2023-04-30T02:30:02;31.90;;;13.05;;
22922;SDS011;11627;51.322;22.816;2023-04-30T02:32:29;29.77;;;11.68;;
22922;SDS011;11627;51.322;22.816;2023-04-30T02:34:55;30.20;;;12.20;;
22922;SDS011;11627;51.322;22.816;2023-04-30T02:37:20;20.40;;;10.45;;
22922;SDS011;11627;51.322;22.816;2023-04-30T02:39:46;20.77;;;9.40;;
22922;SDS011;11627;51.322;22.816;2023-04-30T02:42:12;20.27;;;9.98;;
22922;SDS011;11627;51.322;22.816;2023-04-30T02:44:38;18.67;;;9.05;;
22922;SDS011;11627;51.322;22.816;2023-04-30T02:47:05;17.30;;;9.95;;
22922;SDS011;11627;51.322;22.816;2023-04-30T02:49:31;22.27;;;10.15;;
22922;SDS011;11627;51.322;22.816;2023-04-30T02:51:56;18.08;;;9.80;;
22922;SDS011;11627;51.322;22.816;2023-04-30T02:54:22;24.48;;;10.48;;
22922;SDS011;11627;51.322;22.816;2023-04-30T02:56:48;24.15;;;9.80;;
22922;SDS011;11627;51.322;22.816;2023-04-30T02:59:13;18.55;;;10.48;;
22922;SDS011;11627;51.322;22.816;2023-04-30T03:01:39;19.40;;;9.73;;
22922;SDS011;11627;51.322;22.816;2023-04-30T03:04:05;19.48;;;10.10;;
22922;SDS011;11627;51.322;22.816;2023-04-30T03:06:31;19.90;;;10.85;;
22922;SDS011;11627;51.322;22.816;2023-04-30T03:08:57;21.60;;;11.27;;
22922;SDS011;11627;51.322;22.816;2023-04-30T03:11:24;20.92;;;10.23;;
22922;SDS011;11627;51.322;22.816;2023-04-30T03:13:50;24.42;;;10.75;;
22922;SDS011;11627;51.322;22.816;2023-04-30T03:16:16;21.35;;;10.25;;
22922;SDS011;11627;51.322;22.816;2023-04-30T03:18:43;18.92;;;10.30;;
22922;SDS011;11627;51.322;22.816;2023-04-30T03:21:10;19.42;;;10.48;;
22922;SDS011;11627;51.322;22.816;2023-04-30T03:23:35;19.63;;;10.15;;
22922;SDS011;11627;51.322;22.816;2023-04-30T03:26:01;23.92;;;11.95;;
22922;SDS011;11627;51.322;22.816;2023-04-30T03:28:27;22.33;;;10.88;;
22922;SDS011;11627;51.322;22.816;2023-04-30T03:30:53;18.35;;;10.15;;
22922;SDS011;11627;51.322;22.816;2023-04-30T03:33:18;22.13;;;10.50;;
22922;SDS011;11627;51.322;22.816;2023-04-30T03:35:44;20.40;;;10.23;;
22922;SDS011;11627;51.322;22.816;2023-04-30T03:38:10;18.67;;;9.60;;
22922;SDS011;11627;51.322;22.816;2023-04-30T03:40:37;21.65;;;10.48;;
22922;SDS011;11627;51.322;22.816;2023-04-30T03:43:04;21.98;;;10.05;;
22922;SDS011;11627;51.322;22.816;2023-04-30T03:45:30;18.98;;;9.95;;
22922;SDS011;11627;51.322;22.816;2023-04-30T03:47:55;18.77;;;9.32;;
22922;SDS011;11627;51.322;22.816;2023-04-30T03:50:21;18.10;;;8.70;;
22922;SDS011;11627;51.322;22.816;2023-04-30T03:52:47;19.33;;;9.05;;
22922;SDS011;11627;51.322;22.816;2023-04-30T03:55:12;18.58;;;9.07;;
22922;SDS011;11627;51.322;22.816;2023-04-30T03:57:38;13.63;;;8.50;;
22922;SDS011;11627;51.322;22.816;2023-04-30T04:00:07;15.63;;;8.43;;
22922;SDS011;11627;51.322;22.816;2023-04-30T04:02:37;17.52;;;8.80;;
22922;SDS011;11627;51.322;22.816;2023-04-30T04:05:03;15.45;;;8.20;;
22922;SDS011;11627;51.322;22.816;2023-04-30T04:07:29;15.40;;;8.90;;
22922;SDS011;11627;51.322;22.816;2023-04-30T04:09:55;16.27;;;8.23;;
22922;SDS011;11627;51.322;22.816;2023-04-30T04:12:21;15.32;;;8.98;;
22922;SDS011;11627;51.322;22.816;2023-04-30T04:14:47;12.75;;;8.00;;
22922;SDS011;11627;51.322;22.816;2023-04-30T04:17:13;13.30;;;7.97;;
22922;SDS011;11627;51.322;22.816;2023-04-30T04:19:39;15.23;;;8.30;;
22922;SDS011;11627;51.322;22.816;2023-04-30T04:22:05;13.70;;;7.70;;
22922;SDS011;11627;51.322;22.816;2023-04-30T04:24:31;15.52;;;8.25;;
22922;SDS011;11627;51.322;22.816;2023-04-30T04:26:57;18.90;;;8.55;;
22922;SDS011;11627;51.322;22.816;2023-04-30T04:29:23;13.45;;;7.85;;
22922;SDS011;11627;51.322;22.816;2023-04-30T04:31:49;17.10;;;8.70;;
22922;SDS011;11627;51.322;22.816;2023-04-30T04:34:16;16.63;;;8.80;;
22922;SDS011;11627;51.322;22.816;2023-04-30T04:36:43;18.17;;;9.10;;
22922;SDS011;11627;51.322;22.816;2023-04-30T04:39:09;14.52;;;8.30;;
22922;SDS011;11627;51.322;22.816;2023-04-30T04:41:35;17.13;;;8.07;;
22922;SDS011;11627;51.322;22.816;2023-04-30T04:44:01;14.13;;;7.72;;
22922;SDS011;11627;51.322;22.816;2023-04-30T04:46:28;13.40;;;7.63;;
22922;SDS011;11627;51.322;22.816;2023-04-30T04:48:55;14.88;;;8.30;;
22922;SDS011;11627;51.322;22.816;2023-04-30T04:51:22;14.95;;;8.45;;
22922;SDS011;11627;51.322;22.816;2023-04-30T04:53:48;16.10;;;8.65;;
22922;SDS011;11627;51.322;22.816;2023-04-30T04:56:13;16.30;;;8.85;;
22922;SDS011;11627;51.322;22.816;2023-04-30T04:58:40;16.90;;;8.02;;
22922;SDS011;11627;51.322;22.816;2023-04-30T05:01:06;16.15;;;8.70;;
22922;SDS011;11627;51.322;22.816;2023-04-30T05:03:33;14.90;;;7.88;;
22922;SDS011;11627;51.322;22.816;2023-04-30T05:06:01;13.02;;;8.07;;
22922;SDS011;11627;51.322;22.816;2023-04-30T05:08:27;16.67;;;8.77;;
22922;SDS011;11627;51.322;22.816;2023-04-30T05:10:53;14.25;;;7.78;;
22922;SDS011;11627;51.322;22.816;2023-04-30T05:13:18;12.65;;;7.38;;
22922;SDS011;11627;51.322;22.816;2023-04-30T05:15:44;14.27;;;6.75;;
22922;SDS011;11627;51.322;22.816;2023-04-30T05:18:10;17.27;;;7.25;;
22922;SDS011;11627;51.322;22.816;2023-04-30T05:20:35;12.55;;;7.43;;
22922;SDS011;11627;51.322;22.816;2023-04-30T05:23:01;13.38;;;7.15;;
22922;SDS011;11627;51.322;22.816;2023-04-30T05:25:27;12.60;;;7.43;;
22922;SDS011;11627;51.322;22.816;2023-04-30T05:27:53;14.45;;;7.15;;
22922;SDS011;11627;51.322;22.816;2023-04-30T05:30:20;14.32;;;7.32;;
22922;SDS011;11627;51.322;22.816;2023-04-30T05:32:46;10.45;;;7.10;;
22922;SDS011;11627;51.322;22.816;2023-04-30T05:35:15;13.32;;;7.10;;
22922;SDS011;11627;51.322;22.816;2023-04-30T05:37:41;14.25;;;7.93;;
22922;SDS011;11627;51.322;22.816;2023-04-30T05:40:07;14.63;;;8.35;;
22922;SDS011;11627;51.322;22.816;2023-04-30T05:42:34;14.85;;;8.35;;
22922;SDS011;11627;51.322;22.816;2023-04-30T05:45:00;13.23;;;7.55;;
22922;SDS011;11627;51.322;22.816;2023-04-30T05:47:26;14.35;;;8.38;;
22922;SDS011;11627;51.322;22.816;2023-04-30T05:49:52;14.48;;;7.15;;
22922;SDS011;11627;51.322;22.816;2023-04-30T05:52:18;12.90;;;7.68;;
22922;SDS011;11627;51.322;22.816;2023-04-30T05:54:43;13.13;;;6.95;;
22922;SDS011;11627;51.322;22.816;2023-04-30T05:57:09;13.30;;;7.25;;
22922;SDS011;11627;51.322;22.816;2023-04-30T05:59:35;11.68;;;6.82;;
22922;SDS011;11627;51.322;22.816;2023-04-30T06:02:01;12.32;;;7.28;;
22922;SDS011;11627;51.322;22.816;2023-04-30T06:04:27;13.20;;;7.97;;
22922;SDS011;11627;51.322;22.816;2023-04-30T06:06:53;14.68;;;7.28;;
22922;SDS011;11627;51.322;22.816;2023-04-30T06:09:18;11.50;;;7.18;;
22922;SDS011;11627;51.322;22.816;2023-04-30T06:11:44;13.95;;;7.40;;
22922;SDS011;11627;51.322;22.816;2023-04-30T06:14:14;14.48;;;7.57;;
22922;SDS011;11627;51.322;22.816;2023-04-30T06:16:40;12.15;;;7.55;;
22922;SDS011;11627;51.322;22.816;2023-04-30T06:19:06;14.35;;;7.85;;
22922;SDS011;11627;51.322;22.816;2023-04-30T06:21:32;12.80;;;7.53;;
22922;SDS011;11627;51.322;22.816;2023-04-30T06:23:58;14.23;;;8.43;;
22922;SDS011;11627;51.322;22.816;2023-04-30T06:26:23;11.63;;;7.88;;
22922;SDS011;11627;51.322;22.816;2023-04-30T06:28:49;14.60;;;7.72;;
22922;SDS011;11627;51.322;22.816;2023-04-30T06:31:15;15.38;;;8.13;;
22922;SDS011;11627;51.322;22.816;2023-04-30T06:33:40;16.05;;;8.43;;
22922;SDS011;11627;51.322;22.816;2023-04-30T06:36:06;15.68;;;8.10;;
22922;SDS011;11627;51.322;22.816;2023-04-30T06:38:32;13.93;;;8.55;;
22922;SDS011;11627;51.322;22.816;2023-04-30T06:40:57;16.52;;;9.07;;
22922;SDS011;11627;51.322;22.816;2023-04-30T06:43:23;17.40;;;10.13;;
22922;SDS011;11627;51.322;22.816;2023-04-30T06:45:49;20.55;;;10.27;;
22922;SDS011;11627;51.322;22.816;2023-04-30T06:48:14;18.23;;;9.80;;
22922;SDS011;11627;51.322;22.816;2023-04-30T06:50:40;18.02;;;9.75;;
22922;SDS011;11627;51.322;22.816;2023-04-30T06:53:12;17.60;;;10.20;;
22922;SDS011;11627;51.322;22.816;2023-04-30T06:55:38;22.85;;;11.60;;
22922;SDS011;11627;51.322;22.816;2023-04-30T06:58:05;23.63;;;12.00;;
22922;SDS011;11627;51.322;22.816;2023-04-30T07:00:31;21.65;;;12.82;;
22922;SDS011;11627;51.322;22.816;2023-04-30T07:02:57;22.35;;;12.60;;
22922;SDS011;11627;51.322;22.816;2023-04-30T07:05:26;21.80;;;12.43;;
22922;SDS011;11627;51.322;22.816;2023-04-30T07:07:52;20.20;;;13.20;;
22922;SDS011;11627;51.322;22.816;2023-04-30T07:10:18;23.88;;;13.38;;
22922;SDS011;11627;51.322;22.816;2023-04-30T07:12:44;22.27;;;13.48;;
22922;SDS011;11627;51.322;22.816;2023-04-30T07:15:09;24.77;;;13.63;;
22922;SDS011;11627;51.322;22.816;2023-04-30T07:17:35;23.70;;;14.90;;
22922;SDS011;11627;51.322;22.816;2023-04-30T07:20:02;22.75;;;14.73;;
22922;SDS011;11627;51.322;22.816;2023-04-30T07:22:29;25.30;;;14.23;;
22922;SDS011;11627;51.322;22.816;2023-04-30T07:24:56;27.10;;;15.23;;
22922;SDS011;11627;51.322;22.816;2023-04-30T07:27:22;25.92;;;15.18;;
22922;SDS011;11627;51.322;22.816;2023-04-30T07:29:48;23.77;;;14.80;;
22922;SDS011;11627;51.322;22.816;2023-04-30T07:32:14;23.23;;;14.30;;
22922;SDS011;11627;51.322;22.816;2023-04-30T07:34:40;25.65;;;15.82;;
22922;SDS011;11627;51.322;22.816;2023-04-30T07:37:08;26.00;;;16.42;;
22922;SDS011;11627;51.322;22.816;2023-04-30T07:39:34;28.25;;;16.90;;
22922;SDS011;11627;51.322;22.816;2023-04-30T07:42:02;25.70;;;15.77;;
22922;SDS011;11627;51.322;22.816;2023-04-30T07:44:30;29.00;;;17.58;;
22922;SDS011;11627;51.322;22.816;2023-04-30T07:46:57;26.77;;;16.17;;
22922;SDS011;11627;51.322;22.816;2023-04-30T07:49:24;26.88;;;16.90;;
22922;SDS011;11627;51.322;22.816;2023-04-30T07:51:50;27.15;;;17.58;;
22922;SDS011;11627;51.322;22.816;2023-04-30T07:54:18;28.73;;;18.88;;
22922;SDS011;11627;51.322;22.816;2023-04-30T07:56:44;29.70;;;18.52;;
22922;SDS011;11627;51.322;22.816;2023-04-30T07:59:11;28.65;;;18.25;;
22922;SDS011;11627;51.322;22.816;2023-04-30T08:01:38;27.55;;;18.42;;
22922;SDS011;11627;51.322;22.816;2023-04-30T08:04:04;30.17;;;18.55;;
22922;SDS011;11627;51.322;22.816;2023-04-30T08:06:32;29.23;;;19.25;;
22922;SDS011;11627;51.322;22.816;2023-04-30T08:08:58;30.98;;;19.88;;
22922;SDS011;11627;51.322;22.816;2023-04-30T08:11:25;32.42;;;20.35;;
22922;SDS011;11627;51.322;22.816;2023-04-30T08:13:52;31.50;;;20.20;;
22922;SDS011;11627;51.322;22.816;2023-04-30T08:16:18;35.55;;;20.92;;
22922;SDS011;11627;51.322;22.816;2023-04-30T08:18:44;31.55;;;20.48;;
22922;SDS011;11627;51.322;22.816;2023-04-30T08:21:12;36.28;;;20.13;;
22922;SDS011;11627;51.322;22.816;2023-04-30T08:23:39;33.20;;;19.90;;
22922;SDS011;11627;51.322;22.816;2023-04-30T08:26:05;27.90;;;19.05;;
22922;SDS011;11627;51.322;22.816;2023-04-30T08:28:30;28.45;;;18.98;;
22922;SDS011;11627;51.322;22.816;2023-04-30T08:30:56;26.55;;;18.75;;
22922;SDS011;11627;51.322;22.816;2023-04-30T08:33:23;27.70;;;18.75;;
22922;SDS011;11627;51.322;22.816;2023-04-30T08:35:48;30.05;;;18.88;;
22922;SDS011;11627;51.322;22.816;2023-04-30T08:38:15;29.15;;;18.67;;
22922;SDS011;11627;51.322;22.816;2023-04-30T08:40:42;28.10;;;18.30;;
22922;SDS011;11627;51.322;22.816;2023-04-30T08:43:20;29.05;;;20.17;;
22922;SDS011;11627;51.322;22.816;2023-04-30T08:45:47;28.70;;;21.02;;
22922;SDS011;11627;51.322;22.816;2023-04-30T08:48:15;31.00;;;21.80;;
22922;SDS011;11627;51.322;22.816;2023-04-30T08:50:43;35.22;;;21.63;;
22922;SDS011;11627;51.322;22.816;2023-04-30T08:53:09;34.85;;;23.00;;
22922;SDS011;11627;51.322;22.816;2023-04-30T08:55:38;33.65;;;22.05;;
22922;SDS011;11627;51.322;22.816;2023-04-30T08:58:07;35.60;;;23.27;;
22922;SDS011;11627;51.322;22.816;2023-04-30T09:00:34;32.47;;;24.27;;
22922;SDS011;11627;51.322;22.816;2023-04-30T09:03:02;34.92;;;25.08;;
22922;SDS011;11627;51.322;22.816;2023-04-30T09:05:33;45.97;;;25.20;;
22922;SDS011;11627;51.322;22.816;2023-04-30T09:08:00;38.47;;;25.23;;
22922;SDS011;11627;51.322;22.816;2023-04-30T09:10:30;37.20;;;24.77;;
22922;SDS011;11627;51.322;22.816;2023-04-30T09:12:57;37.83;;;24.42;;
22922;SDS011;11627;51.322;22.816;2023-04-30T09:15:31;37.20;;;25.25;;
22922;SDS011;11627;51.322;22.816;2023-04-30T09:18:11;38.55;;;25.10;;
22922;SDS011;11627;51.322;22.816;2023-04-30T09:20:55;40.65;;;24.38;;
22922;SDS011;11627;51.322;22.816;2023-04-30T09:23:26;36.10;;;25.63;;
22922;SDS011;11627;51.322;22.816;2023-04-30T09:25:53;40.35;;;26.48;;
22922;SDS011;11627;51.322;22.816;2023-04-30T09:28:19;46.38;;;27.73;;
22922;SDS011;11627;51.322;22.816;2023-04-30T09:30:50;39.33;;;26.52;;
22922;SDS011;11627;51.322;22.816;2023-04-30T09:33:26;40.35;;;26.70;;
22922;SDS011;11627;51.322;22.816;2023-04-30T09:36:09;42.70;;;27.77;;
22922;SDS011;11627;51.322;22.816;2023-04-30T09:38:37;45.03;;;27.60;;
22922;SDS011;11627;51.322;22.816;2023-04-30T09:41:03;39.55;;;27.25;;
22922;SDS011;11627;51.322;22.816;2023-04-30T09:43:30;40.47;;;27.67;;
22922;SDS011;11627;51.322;22.816;2023-04-30T09:45:57;45.97;;;27.92;;
22922;SDS011;11627;51.322;22.816;2023-04-30T09:48:24;40.58;;;26.05;;
22922;SDS011;11627;51.322;22.816;2023-04-30T09:50:52;41.60;;;27.38;;
22922;SDS011;11627;51.322;22.816;2023-04-30T09:53:19;44.15;;;27.40;;
22922;SDS011;11627;51.322;22.816;2023-04-30T09:55:46;44.40;;;27.58;;
22922;SDS011;11627;51.322;22.816;2023-04-30T09:58:13;42.60;;;27.23;;
22922;SDS011;11627;51.322;22.816;2023-04-30T10:00:41;42.72;;;26.80;;
22922;SDS011;11627;51.322;22.816;2023-04-30T10:03:09;39.70;;;25.95;;
22922;SDS011;11627;51.322;22.816;2023-04-30T10:05:40;40.30;;;26.85;;
22922;SDS011;11627;51.322;22.816;2023-04-30T10:10:58;36.75;;;24.92;;
22922;SDS011;11627;51.322;22.816;2023-04-30T10:13:30;39.38;;;25.23;;
22922;SDS011;11627;51.322;22.816;2023-04-30T10:16:06;36.15;;;24.73;;
22922;SDS011;11627;51.322;22.816;2023-04-30T10:18:38;33.78;;;21.70;;
22922;SDS011;11627;51.322;22.816;2023-04-30T10:21:07;34.85;;;23.77;;
22922;SDS011;11627;51.322;22.816;2023-04-30T10:23:39;34.55;;;22.95;;
22922;SDS011;11627;51.322;22.816;2023-04-30T10:26:11;37.88;;;24.20;;
22922;SDS011;11627;51.322;22.816;2023-04-30T10:28:38;37.42;;;22.02;;
22922;SDS011;11627;51.322;22.816;2023-04-30T10:31:06;36.72;;;23.55;;
22922;SDS011;11627;51.322;22.816;2023-04-30T10:36:17;34.78;;;20.52;;
22922;SDS011;11627;51.322;22.816;2023-04-30T10:38:50;36.88;;;21.75;;
22922;SDS011;11627;51.322;22.816;2023-04-30T10:41:18;30.25;;;19.52;;
22922;SDS011;11627;51.322;22.816;2023-04-30T10:43:45;28.48;;;19.10;;
22922;SDS011;11627;51.322;22.816;2023-04-30T10:46:22;28.05;;;18.55;;
22922;SDS011;11627;51.322;22.816;2023-04-30T10:48:48;26.95;;;17.58;;
22922;SDS011;11627;51.322;22.816;2023-04-30T10:51:18;24.33;;;17.25;;
22922;SDS011;11627;51.322;22.816;2023-04-30T10:53:45;23.85;;;16.17;;
22922;SDS011;11627;51.322;22.816;2023-04-30T10:56:37;24.65;;;15.80;;
22922;SDS011;11627;51.322;22.816;2023-04-30T10:59:02;20.50;;;13.27;;
22922;SDS011;11627;51.322;22.816;2023-04-30T11:01:28;17.23;;;12.55;;
22922;SDS011;11627;51.322;22.816;2023-04-30T11:04:05;19.48;;;12.55;;
22922;SDS011;11627;51.322;22.816;2023-04-30T11:06:48;18.48;;;11.98;;
22922;SDS011;11627;51.322;22.816;2023-04-30T11:12:13;18.30;;;11.55;;
22922;SDS011;11627;51.322;22.816;2023-04-30T11:14:43;15.07;;;10.77;;
22922;SDS011;11627;51.322;22.816;2023-04-30T11:17:11;18.25;;;10.55;;
22922;SDS011;11627;51.322;22.816;2023-04-30T11:19:47;14.80;;;9.52;;
22922;SDS011;11627;51.322;22.816;2023-04-30T11:22:14;15.63;;;10.50;;
22922;SDS011;11627;51.322;22.816;2023-04-30T11:27:37;13.18;;;8.77;;
22922;SDS011;11627;51.322;22.816;2023-04-30T11:30:12;11.50;;;7.38;;
22922;SDS011;11627;51.322;22.816;2023-04-30T11:32:42;13.73;;;7.47;;
22922;SDS011;11627;51.322;22.816;2023-04-30T11:35:11;11.55;;;7.28;;
22922;SDS011;11627;51.322;22.816;2023-04-30T11:37:41;12.30;;;7.88;;
22922;SDS011;11627;51.322;22.816;2023-04-30T11:40:09;9.73;;;6.97;;
22922;SDS011;11627;51.322;22.816;2023-04-30T11:42:39;10.20;;;7.10;;
22922;SDS011;11627;51.322;22.816;2023-04-30T11:50:13;9.48;;;6.82;;
22922;SDS011;11627;51.322;22.816;2023-04-30T11:52:40;10.18;;;7.25;;
22922;SDS011;11627;51.322;22.816;2023-04-30T11:55:17;14.05;;;6.82;;
22922;SDS011;11627;51.322;22.816;2023-04-30T11:57:44;8.60;;;6.50;;
22922;SDS011;11627;51.322;22.816;2023-04-30T12:00:18;9.88;;;7.07;;
22922;SDS011;11627;51.322;22.816;2023-04-30T12:02:46;13.98;;;6.68;;
22922;SDS011;11627;51.322;22.816;2023-04-30T12:05:20;9.55;;;6.68;;
22922;SDS011;11627;51.322;22.816;2023-04-30T12:10:29;10.82;;;6.10;;
22922;SDS011;11627;51.322;22.816;2023-04-30T12:12:56;9.80;;;6.07;;
22922;SDS011;11627;51.322;22.816;2023-04-30T12:15:22;7.35;;;5.65;;
22922;SDS011;11627;51.322;22.816;2023-04-30T12:17:51;11.90;;;6.15;;
22922;SDS011;11627;51.322;22.816;2023-04-30T12:20:21;10.85;;;6.15;;
22922;SDS011;11627;51.322;22.816;2023-04-30T12:22:47;8.38;;;6.00;;
22922;SDS011;11627;51.322;22.816;2023-04-30T12:25:15;11.00;;;5.85;;
22922;SDS011;11627;51.322;22.816;2023-04-30T12:27:46;10.63;;;5.38;;
22922;SDS011;11627;51.322;22.816;2023-04-30T12:30:13;9.27;;;5.18;;
22922;SDS011;11627;51.322;22.816;2023-04-30T12:32:40;8.18;;;5.38;;
22922;SDS011;11627;51.322;22.816;2023-04-30T12:35:07;6.60;;;4.78;;
22922;SDS011;11627;51.322;22.816;2023-04-30T12:37:43;8.02;;;4.70;;
22922;SDS011;11627;51.322;22.816;2023-04-30T12:40:10;8.80;;;4.53;;
22922;SDS011;11627;51.322;22.816;2023-04-30T12:42:37;10.55;;;6.20;;
22922;SDS011;11627;51.322;22.816;2023-04-30T12:45:03;6.20;;;4.10;;
22922;SDS011;11627;51.322;22.816;2023-04-30T12:47:29;6.32;;;3.72;;
22922;SDS011;11627;51.322;22.816;2023-04-30T12:49:55;6.78;;;3.65;;
22922;SDS011;11627;51.322;22.816;2023-04-30T12:52:24;6.43;;;3.30;;
22922;SDS011;11627;51.322;22.816;2023-04-30T12:54:51;6.57;;;3.78;;
22922;SDS011;11627;51.322;22.816;2023-04-30T12:57:18;5.93;;;3.85;;
22922;SDS011;11627;51.322;22.816;2023-04-30T12:59:57;6.10;;;3.20;;
22922;SDS011;11627;51.322;22.816;2023-04-30T13:02:25;6.72;;;3.60;;
22922;SDS011;11627;51.322;22.816;2023-04-30T13:04:56;8.30;;;3.33;;
22922;SDS011;11627;51.322;22.816;2023-04-30T13:07:22;8.30;;;3.50;;
22922;SDS011;11627;51.322;22.816;2023-04-30T13:09:48;5.15;;;3.00;;
22922;SDS011;11627;51.322;22.816;2023-04-30T13:12:14;6.03;;;3.13;;
22922;SDS011;11627;51.322;22.816;2023-04-30T13:14:39;4.20;;;3.20;;
22922;SDS011;11627;51.322;22.816;2023-04-30T13:17:05;6.22;;;2.90;;
22922;SDS011;11627;51.322;22.816;2023-04-30T13:19:33;7.10;;;2.80;;
22922;SDS011;11627;51.322;22.816;2023-04-30T13:21:59;3.70;;;2.60;;
22922;SDS011;11627;51.322;22.816;2023-04-30T13:24:25;5.00;;;2.80;;
22922;SDS011;11627;51.322;22.816;2023-04-30T13:26:51;4.43;;;2.70;;
22922;SDS011;11627;51.322;22.816;2023-04-30T13:29:17;4.72;;;2.42;;
22922;SDS011;11627;51.322;22.816;2023-04-30T13:31:46;6.07;;;2.90;;
22922;SDS011;11627;51.322;22.816;2023-04-30T13:34:13;4.25;;;2.63;;
22922;SDS011;11627;51.322;22.816;2023-04-30T13:36:39;5.57;;;2.53;;
22922;SDS011;11627;51.322;22.816;2023-04-30T13:39:05;8.50;;;2.78;;
22922;SDS011;11627;51.322;22.816;2023-04-30T13:41:31;6.68;;;2.80;;
22922;SDS011;11627;51.322;22.816;2023-04-30T13:43:57;7.15;;;2.95;;
22922;SDS011;11627;51.322;22.816;2023-04-30T13:46:24;4.88;;;2.35;;
22922;SDS011;11627;51.322;22.816;2023-04-30T13:48:50;5.63;;;2.60;;
22922;SDS011;11627;51.322;22.816;2023-04-30T13:51:17;5.93;;;2.25;;
22922;SDS011;11627;51.322;22.816;2023-04-30T13:53:43;6.47;;;2.40;;
22922;SDS011;11627;51.322;22.816;2023-04-30T13:56:09;5.43;;;2.47;;
22922;SDS011;11627;51.322;22.816;2023-04-30T13:58:35;8.55;;;2.50;;
22922;SDS011;11627;51.322;22.816;2023-04-30T14:01:01;5.22;;;2.00;;
22922;SDS011;11627;51.322;22.816;2023-04-30T14:03:27;5.32;;;2.00;;
22922;SDS011;11627;51.322;22.816;2023-04-30T14:05:53;5.07;;;2.10;;
22922;SDS011;11627;51.322;22.816;2023-04-30T14:08:19;5.13;;;2.10;;
22922;SDS011;11627;51.322;22.816;2023-04-30T14:10:44;4.57;;;2.13;;
22922;SDS011;11627;51.322;22.816;2023-04-30T14:13:11;6.53;;;2.30;;
22922;SDS011;11627;51.322;22.816;2023-04-30T14:15:37;3.90;;;2.42;;
22922;SDS011;11627;51.322;22.816;2023-04-30T14:18:03;8.25;;;2.15;;
22922;SDS011;11627;51.322;22.816;2023-04-30T14:20:28;4.13;;;1.92;;
22922;SDS011;11627;51.322;22.816;2023-04-30T14:22:54;6.13;;;2.03;;
22922;SDS011;11627;51.322;22.816;2023-04-30T14:25:20;5.15;;;1.85;;
22922;SDS011;11627;51.322;22.816;2023-04-30T14:27:46;5.32;;;2.47;;
22922;SDS011;11627;51.322;22.816;2023-04-30T14:30:12;3.88;;;1.67;;
22922;SDS011;11627;51.322;22.816;2023-04-30T14:32:38;4.13;;;1.88;;
22922;SDS011;11627;51.322;22.816;2023-04-30T14:35:04;10.25;;;2.50;;
22922;SDS011;11627;51.322;22.816;2023-04-30T14:37:30;6.15;;;1.88;;
22922;SDS011;11627;51.322;22.816;2023-04-30T14:39:55;3.25;;;1.52;;
22922;SDS011;11627;51.322;22.816;2023-04-30T14:42:22;4.55;;;2.25;;
22922;SDS011;11627;51.322;22.816;2023-04-30T14:44:48;5.88;;;1.83;;
22922;SDS011;11627;51.322;22.816;2023-04-30T14:47:14;5.15;;;1.70;;
22922;SDS011;11627;51.322;22.816;2023-04-30T14:49:40;4.63;;;1.60;;
22922;SDS011;11627;51.322;22.816;2023-04-30T14:52:05;5.38;;;1.80;;
22922;SDS011;11627;51.322;22.816;2023-04-30T14:54:31;4.32;;;1.60;;
22922;SDS011;11627;51.322;22.816;2023-04-30T14:56:57;4.20;;;1.65;;